sensor_id;sensor_type;location;lat;lon;timestamp;temperature;humidity
36856;DHT22;22788;51.434;6.786;2024-01-30T00:00:35;8.40;99.90
36856;DHT22;22788;51.434;6.786;2024-01-30T00:03:01;8.40;99.90
36856;DHT22;22788;51.434;6.786;2024-01-30T00:05:27;8.40;99.90
36856;DHT22;22788;51.434;6.786;2024-01-30T00:07:52;8.40;99.90
36856;DHT22;22788;51.434;6.786;2024-01-30T00:10:18;8.40;99.90
36856;DHT22;22788;51.434;6.786;2024-01-30T00:12:43;8.40;99.90
36856;DHT22;22788;51.434;6.786;2024-01-30T00:15:09;8.40;99.90
36856;DHT22;22788;51.434;6.786;2024-01-30T00:17:36;8.40;99.90
36856;DHT22;22788;51.434;6.786;2024-01-30T00:20:02;8.40;99.90
36856;DHT22;22788;51.434;6.786;2024-01-30T00:22:28;8.40;99.90
36856;DHT22;22788;51.434;6.786;2024-01-30T00:24:53;8.40;99.90
36856;DHT22;22788;51.434;6.786;2024-01-30T00:27:19;8.40;99.90
36856;DHT22;22788;51.434;6.786;2024-01-30T00:29:44;8.40;99.90
36856;DHT22;22788;51.434;6.786;2024-01-30T00:32:10;8.40;99.90
36856;DHT22;22788;51.434;6.786;2024-01-30T00:34:37;8.40;99.90
36856;DHT22;22788;51.434;6.786;2024-01-30T00:37:03;8.40;99.90
36856;DHT22;22788;51.434;6.786;2024-01-30T00:39:29;8.40;99.90
36856;DHT22;22788;51.434;6.786;2024-01-30T00:41:54;8.40;99.90
36856;DHT22;22788;51.434;6.786;2024-01-30T00:44:20;8.40;99.90
36856;DHT22;22788;51.434;6.786;2024-01-30T00:46:45;8.30;99.90
36856;DHT22;22788;51.434;6.786;2024-01-30T00:49:11;8.40;99.90
36856;DHT22;22788;51.434;6.786;2024-01-30T00:51:38;8.40;99.90
36856;DHT22;22788;51.434;6.786;2024-01-30T00:54:03;8.40;99.90
36856;DHT22;22788;51.434;6.786;2024-01-30T00:56:29;8.40;99.90
36856;DHT22;22788;51.434;6.786;2024-01-30T00:58:56;8.40;99.90
36856;DHT22;22788;51.434;6.786;2024-01-30T01:01:21;8.40;99.90
36856;DHT22;22788;51.434;6.786;2024-01-30T01:03:47;8.40;99.90
36856;DHT22;22788;51.434;6.786;2024-01-30T01:06:12;8.40;99.90
36856;DHT22;22788;51.434;6.786;2024-01-30T01:08:39;8.40;99.90
36856;DHT22;22788;51.434;6.786;2024-01-30T01:11:05;8.40;99.90
36856;DHT22;22788;51.434;6.786;2024-01-30T01:13:31;8.40;99.90
36856;DHT22;22788;51.434;6.786;2024-01-30T01:15:56;8.40;99.90
36856;DHT22;22788;51.434;6.786;2024-01-30T01:18:22;8.40;99.90
36856;DHT22;22788;51.434;6.786;2024-01-30T01:20:48;8.40;99.90
36856;DHT22;22788;51.434;6.786;2024-01-30T01:23:13;8.40;99.90
36856;DHT22;22788;51.434;6.786;2024-01-30T01:25:40;8.40;99.90
36856;DHT22;22788;51.434;6.786;2024-01-30T01:28:06;8.40;99.90
36856;DHT22;22788;51.434;6.786;2024-01-30T01:30:31;8.40;99.90
36856;DHT22;22788;51.434;6.786;2024-01-30T01:32:57;8.40;99.90
36856;DHT22;22788;51.434;6.786;2024-01-30T01:35:23;8.40;99.90
36856;DHT22;22788;51.434;6.786;2024-01-30T01:37:49;8.40;99.90
36856;DHT22;22788;51.434;6.786;2024-01-30T01:40:14;8.40;99.90
36856;DHT22;22788;51.434;6.786;2024-01-30T01:42:41;8.40;99.90
36856;DHT22;22788;51.434;6.786;2024-01-30T01:45:08;8.30;99.90
36856;DHT22;22788;51.434;6.786;2024-01-30T01:47:33;8.30;99.90
36856;DHT22;22788;51.434;6.786;2024-01-30T01:49:59;8.40;99.90
36856;DHT22;22788;51.434;6.786;2024-01-30T01:52:25;8.30;99.90
36856;DHT22;22788;51.434;6.786;2024-01-30T01:54:50;8.30;99.90
36856;DHT22;22788;51.434;6.786;2024-01-30T01:57:16;8.40;99.90
36856;DHT22;22788;51.434;6.786;2024-01-30T01:59:43;8.40;99.90
36856;DHT22;22788;51.434;6.786;2024-01-30T02:02:11;8.40;99.90
36856;DHT22;22788;51.434;6.786;2024-01-30T02:04:38;8.30;99.90
36856;DHT22;22788;51.434;6.786;2024-01-30T02:07:03;8.30;99.90
36856;DHT22;22788;51.434;6.786;2024-01-30T02:09:29;8.30;99.90
36856;DHT22;22788;51.434;6.786;2024-01-30T02:11:55;8.40;99.90
36856;DHT22;22788;51.434;6.786;2024-01-30T02:14:21;8.30;99.90
36856;DHT22;22788;51.434;6.786;2024-01-30T02:16:47;8.40;99.90
36856;DHT22;22788;51.434;6.786;2024-01-30T02:19:13;8.30;99.90
36856;DHT22;22788;51.434;6.786;2024-01-30T02:21:40;8.30;99.90
36856;DHT22;22788;51.434;6.786;2024-01-30T02:24:06;8.30;99.90
36856;DHT22;22788;51.434;6.786;2024-01-30T02:26:31;8.30;99.90
36856;DHT22;22788;51.434;6.786;2024-01-30T02:28:57;8.30;99.90
36856;DHT22;22788;51.434;6.786;2024-01-30T02:31:24;8.30;99.90
36856;DHT22;22788;51.434;6.786;2024-01-30T02:33:50;8.30;99.90
36856;DHT22;22788;51.434;6.786;2024-01-30T02:36:15;8.30;99.90
36856;DHT22;22788;51.434;6.786;2024-01-30T02:38:42;8.30;99.90
36856;DHT22;22788;51.434;6.786;2024-01-30T02:41:08;8.30;99.90
36856;DHT22;22788;51.434;6.786;2024-01-30T02:43:34;8.30;99.90
36856;DHT22;22788;51.434;6.786;2024-01-30T02:45:59;8.30;99.90
36856;DHT22;22788;51.434;6.786;2024-01-30T02:48:25;8.30;99.90
36856;DHT22;22788;51.434;6.786;2024-01-30T02:50:50;8.30;99.90
36856;DHT22;22788;51.434;6.786;2024-01-30T02:53:16;8.30;99.90
36856;DHT22;22788;51.434;6.786;2024-01-30T02:55:43;8.30;99.90
36856;DHT22;22788;51.434;6.786;2024-01-30T02:58:08;8.30;99.90
36856;DHT22;22788;51.434;6.786;2024-01-30T03:00:34;8.30;99.90
36856;DHT22;22788;51.434;6.786;2024-01-30T03:03:00;8.30;99.90
36856;DHT22;22788;51.434;6.786;2024-01-30T03:05:25;8.30;99.90
36856;DHT22;22788;51.434;6.786;2024-01-30T03:07:51;8.30;99.90
36856;DHT22;22788;51.434;6.786;2024-01-30T03:10:16;8.30;99.90
36856;DHT22;22788;51.434;6.786;2024-01-30T03:12:43;8.30;99.90
36856;DHT22;22788;51.434;6.786;2024-01-30T03:15:09;8.30;99.90
36856;DHT22;22788;51.434;6.786;2024-01-30T03:17:35;8.30;99.90
36856;DHT22;22788;51.434;6.786;2024-01-30T03:20:00;8.30;99.90
36856;DHT22;22788;51.434;6.786;2024-01-30T03:22:26;8.30;99.90
36856;DHT22;22788;51.434;6.786;2024-01-30T03:24:51;8.30;99.90
36856;DHT22;22788;51.434;6.786;2024-01-30T03:27:17;8.30;99.90
36856;DHT22;22788;51.434;6.786;2024-01-30T03:29:44;8.30;99.90
36856;DHT22;22788;51.434;6.786;2024-01-30T03:32:09;8.30;99.90
36856;DHT22;22788;51.434;6.786;2024-01-30T03:34:35;8.30;99.90
36856;DHT22;22788;51.434;6.786;2024-01-30T03:37:00;8.30;99.90
36856;DHT22;22788;51.434;6.786;2024-01-30T03:39:26;8.30;99.90
36856;DHT22;22788;51.434;6.786;2024-01-30T03:41:52;8.30;99.90
36856;DHT22;22788;51.434;6.786;2024-01-30T03:44:17;8.30;99.90
36856;DHT22;22788;51.434;6.786;2024-01-30T03:46:44;8.30;99.90
36856;DHT22;22788;51.434;6.786;2024-01-30T03:49:10;8.30;99.90
36856;DHT22;22788;51.434;6.786;2024-01-30T03:51:35;8.30;99.90
36856;DHT22;22788;51.434;6.786;2024-01-30T03:54:01;8.30;99.90
36856;DHT22;22788;51.434;6.786;2024-01-30T03:56:26;8.30;99.90
36856;DHT22;22788;51.434;6.786;2024-01-30T03:58:52;8.30;99.90
36856;DHT22;22788;51.434;6.786;2024-01-30T04:01:18;8.30;99.90
36856;DHT22;22788;51.434;6.786;2024-01-30T04:03:45;8.30;99.90
36856;DHT22;22788;51.434;6.786;2024-01-30T04:06:11;8.30;99.90
36856;DHT22;22788;51.434;6.786;2024-01-30T04:08:37;8.30;99.90
36856;DHT22;22788;51.434;6.786;2024-01-30T04:11:04;8.30;99.90
36856;DHT22;22788;51.434;6.786;2024-01-30T04:13:29;8.30;99.90
36856;DHT22;22788;51.434;6.786;2024-01-30T04:15:55;8.30;99.90
36856;DHT22;22788;51.434;6.786;2024-01-30T04:18:20;8.30;99.90
36856;DHT22;22788;51.434;6.786;2024-01-30T04:20:47;8.30;99.90
36856;DHT22;22788;51.434;6.786;2024-01-30T04:23:13;8.30;99.90
36856;DHT22;22788;51.434;6.786;2024-01-30T04:25:38;8.30;99.90
36856;DHT22;22788;51.434;6.786;2024-01-30T04:28:04;8.30;99.90
36856;DHT22;22788;51.434;6.786;2024-01-30T04:30:30;8.30;99.90
36856;DHT22;22788;51.434;6.786;2024-01-30T04:32:55;8.20;99.90
36856;DHT22;22788;51.434;6.786;2024-01-30T04:35:21;8.30;99.90
36856;DHT22;22788;51.434;6.786;2024-01-30T04:37:48;8.30;99.90
36856;DHT22;22788;51.434;6.786;2024-01-30T04:40:14;8.30;99.90
36856;DHT22;22788;51.434;6.786;2024-01-30T04:42:39;8.30;99.90
36856;DHT22;22788;51.434;6.786;2024-01-30T04:45:06;8.20;99.90
36856;DHT22;22788;51.434;6.786;2024-01-30T04:47:31;8.20;99.90
36856;DHT22;22788;51.434;6.786;2024-01-30T04:49:57;8.30;99.90
36856;DHT22;22788;51.434;6.786;2024-01-30T04:52:22;8.30;99.90
36856;DHT22;22788;51.434;6.786;2024-01-30T04:54:49;8.30;99.90
36856;DHT22;22788;51.434;6.786;2024-01-30T04:57:15;8.20;99.90
36856;DHT22;22788;51.434;6.786;2024-01-30T04:59:41;8.30;99.90
36856;DHT22;22788;51.434;6.786;2024-01-30T05:02:06;8.20;99.90
36856;DHT22;22788;51.434;6.786;2024-01-30T05:04:32;8.20;99.90
36856;DHT22;22788;51.434;6.786;2024-01-30T05:06:57;8.30;99.90
36856;DHT22;22788;51.434;6.786;2024-01-30T05:09:23;8.20;99.90
36856;DHT22;22788;51.434;6.786;2024-01-30T05:11:50;8.20;99.90
36856;DHT22;22788;51.434;6.786;2024-01-30T05:14:15;8.30;99.90
36856;DHT22;22788;51.434;6.786;2024-01-30T05:16:41;8.20;99.90
36856;DHT22;22788;51.434;6.786;2024-01-30T05:19:07;8.30;99.90
36856;DHT22;22788;51.434;6.786;2024-01-30T05:21:32;8.20;99.90
36856;DHT22;22788;51.434;6.786;2024-01-30T05:23:58;8.20;99.90
36856;DHT22;22788;51.434;6.786;2024-01-30T05:26:23;8.20;99.90
36856;DHT22;22788;51.434;6.786;2024-01-30T05:28:50;8.20;99.90
36856;DHT22;22788;51.434;6.786;2024-01-30T05:31:16;8.20;99.90
36856;DHT22;22788;51.434;6.786;2024-01-30T05:33:41;8.40;99.90
36856;DHT22;22788;51.434;6.786;2024-01-30T05:36:07;8.20;99.90
36856;DHT22;22788;51.434;6.786;2024-01-30T05:38:33;8.20;99.90
36856;DHT22;22788;51.434;6.786;2024-01-30T05:40:58;8.20;99.90
36856;DHT22;22788;51.434;6.786;2024-01-30T05:43:24;8.20;99.90
36856;DHT22;22788;51.434;6.786;2024-01-30T05:45:52;8.20;99.90
36856;DHT22;22788;51.434;6.786;2024-01-30T05:48:17;8.20;99.90
36856;DHT22;22788;51.434;6.786;2024-01-30T05:50:43;8.30;99.90
36856;DHT22;22788;51.434;6.786;2024-01-30T05:53:08;8.20;99.90
36856;DHT22;22788;51.434;6.786;2024-01-30T05:55:34;8.20;99.90
36856;DHT22;22788;51.434;6.786;2024-01-30T05:58:00;8.20;99.90
36856;DHT22;22788;51.434;6.786;2024-01-30T06:00:25;8.20;99.90
36856;DHT22;22788;51.434;6.786;2024-01-30T06:02:52;8.20;99.90
36856;DHT22;22788;51.434;6.786;2024-01-30T06:05:18;8.20;99.90
36856;DHT22;22788;51.434;6.786;2024-01-30T06:07:43;8.20;99.90
36856;DHT22;22788;51.434;6.786;2024-01-30T06:10:09;8.20;99.90
36856;DHT22;22788;51.434;6.786;2024-01-30T06:12:35;8.30;99.90
36856;DHT22;22788;51.434;6.786;2024-01-30T06:15:00;8.20;99.90
36856;DHT22;22788;51.434;6.786;2024-01-30T06:17:26;8.20;99.90
36856;DHT22;22788;51.434;6.786;2024-01-30T06:19:53;8.20;99.90
36856;DHT22;22788;51.434;6.786;2024-01-30T06:22:18;8.30;99.90
36856;DHT22;22788;51.434;6.786;2024-01-30T06:24:44;8.20;99.90
36856;DHT22;22788;51.434;6.786;2024-01-30T06:27:09;8.20;99.90
36856;DHT22;22788;51.434;6.786;2024-01-30T06:29:35;8.30;99.90
36856;DHT22;22788;51.434;6.786;2024-01-30T06:32:01;8.20;99.90
36856;DHT22;22788;51.434;6.786;2024-01-30T06:34:26;8.20;99.90
36856;DHT22;22788;51.434;6.786;2024-01-30T06:36:53;8.20;99.90
36856;DHT22;22788;51.434;6.786;2024-01-30T06:39:19;8.30;99.90
36856;DHT22;22788;51.434;6.786;2024-01-30T06:41:45;8.30;99.90
36856;DHT22;22788;51.434;6.786;2024-01-30T06:44:10;8.20;99.90
36856;DHT22;22788;51.434;6.786;2024-01-30T06:46:36;8.30;99.90
36856;DHT22;22788;51.434;6.786;2024-01-30T06:49:01;8.30;99.90
36856;DHT22;22788;51.434;6.786;2024-01-30T06:51:27;8.30;99.90
36856;DHT22;22788;51.434;6.786;2024-01-30T06:53:54;8.30;99.90
36856;DHT22;22788;51.434;6.786;2024-01-30T06:56:19;8.30;99.90
36856;DHT22;22788;51.434;6.786;2024-01-30T06:58:45;8.30;99.90
36856;DHT22;22788;51.434;6.786;2024-01-30T07:01:10;8.30;99.90
36856;DHT22;22788;51.434;6.786;2024-01-30T07:06:02;8.30;99.90
36856;DHT22;22788;51.434;6.786;2024-01-30T07:08:28;8.30;99.90
36856;DHT22;22788;51.434;6.786;2024-01-30T07:10:54;8.30;99.90
36856;DHT22;22788;51.434;6.786;2024-01-30T07:13:20;8.30;99.90
36856;DHT22;22788;51.434;6.786;2024-01-30T07:15:46;8.30;99.90
36856;DHT22;22788;51.434;6.786;2024-01-30T07:18:11;8.30;99.90
36856;DHT22;22788;51.434;6.786;2024-01-30T07:20:37;8.30;99.90
36856;DHT22;22788;51.434;6.786;2024-01-30T07:23:03;8.30;99.90
36856;DHT22;22788;51.434;6.786;2024-01-30T07:25:28;8.30;99.90
36856;DHT22;22788;51.434;6.786;2024-01-30T07:27:55;8.30;99.90
36856;DHT22;22788;51.434;6.786;2024-01-30T07:30:21;8.30;99.90
36856;DHT22;22788;51.434;6.786;2024-01-30T07:32:47;8.40;99.90
36856;DHT22;22788;51.434;6.786;2024-01-30T07:35:13;8.30;99.90
36856;DHT22;22788;51.434;6.786;2024-01-30T07:37:39;8.30;99.90
36856;DHT22;22788;51.434;6.786;2024-01-30T07:40:05;8.30;99.90
36856;DHT22;22788;51.434;6.786;2024-01-30T07:42:31;8.30;99.90
36856;DHT22;22788;51.434;6.786;2024-01-30T07:44:58;8.30;99.90
36856;DHT22;22788;51.434;6.786;2024-01-30T07:47:24;8.30;99.90
36856;DHT22;22788;51.434;6.786;2024-01-30T07:49:50;8.30;99.90
36856;DHT22;22788;51.434;6.786;2024-01-30T07:52:15;8.30;99.90
36856;DHT22;22788;51.434;6.786;2024-01-30T07:54:41;8.50;99.90
36856;DHT22;22788;51.434;6.786;2024-01-30T07:57:06;8.30;99.90
36856;DHT22;22788;51.434;6.786;2024-01-30T07:59:32;8.30;99.90
36856;DHT22;22788;51.434;6.786;2024-01-30T08:01:59;8.30;99.90
36856;DHT22;22788;51.434;6.786;2024-01-30T08:04:24;8.30;99.90
36856;DHT22;22788;51.434;6.786;2024-01-30T08:06:50;8.30;99.90
36856;DHT22;22788;51.434;6.786;2024-01-30T08:09:16;8.30;99.90
36856;DHT22;22788;51.434;6.786;2024-01-30T08:11:41;8.30;99.90
36856;DHT22;22788;51.434;6.786;2024-01-30T08:14:07;8.30;99.90
36856;DHT22;22788;51.434;6.786;2024-01-30T08:16:32;8.30;99.90
36856;DHT22;22788;51.434;6.786;2024-01-30T08:18:59;8.30;99.90
36856;DHT22;22788;51.434;6.786;2024-01-30T08:21:25;8.30;99.90
36856;DHT22;22788;51.434;6.786;2024-01-30T08:23:50;8.30;99.90
36856;DHT22;22788;51.434;6.786;2024-01-30T08:26:16;8.30;99.90
36856;DHT22;22788;51.434;6.786;2024-01-30T08:28:41;8.30;99.90
36856;DHT22;22788;51.434;6.786;2024-01-30T08:31:07;8.40;99.90
36856;DHT22;22788;51.434;6.786;2024-01-30T08:33:35;8.30;99.90
36856;DHT22;22788;51.434;6.786;2024-01-30T08:36:02;8.30;99.90
36856;DHT22;22788;51.434;6.786;2024-01-30T08:38:28;8.40;99.90
36856;DHT22;22788;51.434;6.786;2024-01-30T08:40:55;8.40;99.90
36856;DHT22;22788;51.434;6.786;2024-01-30T08:43:20;8.40;99.90
36856;DHT22;22788;51.434;6.786;2024-01-30T08:45:46;8.40;99.90
36856;DHT22;22788;51.434;6.786;2024-01-30T08:48:11;8.40;99.90
36856;DHT22;22788;51.434;6.786;2024-01-30T08:50:37;8.40;99.90
36856;DHT22;22788;51.434;6.786;2024-01-30T08:53:04;8.40;99.90
36856;DHT22;22788;51.434;6.786;2024-01-30T08:55:30;8.50;99.90
36856;DHT22;22788;51.434;6.786;2024-01-30T08:57:56;8.40;99.90
36856;DHT22;22788;51.434;6.786;2024-01-30T09:00:22;8.40;99.90
36856;DHT22;22788;51.434;6.786;2024-01-30T09:02:47;8.40;99.90
36856;DHT22;22788;51.434;6.786;2024-01-30T09:05:13;8.40;99.90
36856;DHT22;22788;51.434;6.786;2024-01-30T09:07:38;8.50;99.90
36856;DHT22;22788;51.434;6.786;2024-01-30T09:10:06;8.50;99.90
36856;DHT22;22788;51.434;6.786;2024-01-30T09:12:32;8.50;99.90
36856;DHT22;22788;51.434;6.786;2024-01-30T09:14:58;8.50;99.90
36856;DHT22;22788;51.434;6.786;2024-01-30T09:17:23;8.50;99.90
36856;DHT22;22788;51.434;6.786;2024-01-30T09:19:49;8.50;99.90
36856;DHT22;22788;51.434;6.786;2024-01-30T09:22:14;8.60;99.90
36856;DHT22;22788;51.434;6.786;2024-01-30T09:24:40;8.60;99.90
36856;DHT22;22788;51.434;6.786;2024-01-30T09:27:07;8.50;99.90
36856;DHT22;22788;51.434;6.786;2024-01-30T09:29:33;8.50;99.90
36856;DHT22;22788;51.434;6.786;2024-01-30T09:31:58;8.60;99.90
36856;DHT22;22788;51.434;6.786;2024-01-30T09:34:24;8.60;99.90
36856;DHT22;22788;51.434;6.786;2024-01-30T09:36:49;8.50;99.90
36856;DHT22;22788;51.434;6.786;2024-01-30T09:39:15;8.60;99.90
36856;DHT22;22788;51.434;6.786;2024-01-30T09:41:47;8.60;99.90
36856;DHT22;22788;51.434;6.786;2024-01-30T09:44:16;8.70;99.90
36856;DHT22;22788;51.434;6.786;2024-01-30T09:46:42;8.60;99.90
36856;DHT22;22788;51.434;6.786;2024-01-30T09:49:09;8.70;99.90
36856;DHT22;22788;51.434;6.786;2024-01-30T09:51:35;8.70;99.90
36856;DHT22;22788;51.434;6.786;2024-01-30T09:54:02;8.70;99.90
36856;DHT22;22788;51.434;6.786;2024-01-30T09:56:28;8.70;99.90
36856;DHT22;22788;51.434;6.786;2024-01-30T09:58:53;8.70;99.90
36856;DHT22;22788;51.434;6.786;2024-01-30T10:01:21;8.80;99.90
36856;DHT22;22788;51.434;6.786;2024-01-30T10:03:47;8.80;99.90
36856;DHT22;22788;51.434;6.786;2024-01-30T10:06:13;8.90;99.90
36856;DHT22;22788;51.434;6.786;2024-01-30T10:08:39;8.90;99.90
36856;DHT22;22788;51.434;6.786;2024-01-30T10:11:05;8.90;99.90
36856;DHT22;22788;51.434;6.786;2024-01-30T10:13:30;8.90;99.90
36856;DHT22;22788;51.434;6.786;2024-01-30T10:15:56;9.00;99.90
36856;DHT22;22788;51.434;6.786;2024-01-30T10:18:23;9.00;99.90
36856;DHT22;22788;51.434;6.786;2024-01-30T10:20:49;9.00;99.90
36856;DHT22;22788;51.434;6.786;2024-01-30T10:23:15;9.00;99.90
36856;DHT22;22788;51.434;6.786;2024-01-30T10:25:40;9.00;99.90
36856;DHT22;22788;51.434;6.786;2024-01-30T10:28:06;9.00;99.90
36856;DHT22;22788;51.434;6.786;2024-01-30T10:30:32;9.10;99.90
36856;DHT22;22788;51.434;6.786;2024-01-30T10:32:57;9.10;99.90
36856;DHT22;22788;51.434;6.786;2024-01-30T10:35:24;9.20;99.90
36856;DHT22;22788;51.434;6.786;2024-01-30T10:37:50;9.20;99.90
36856;DHT22;22788;51.434;6.786;2024-01-30T10:40:16;9.20;99.90
36856;DHT22;22788;51.434;6.786;2024-01-30T10:42:43;9.20;99.90
36856;DHT22;22788;51.434;6.786;2024-01-30T10:45:10;9.20;99.90
36856;DHT22;22788;51.434;6.786;2024-01-30T10:47:36;9.20;99.90
36856;DHT22;22788;51.434;6.786;2024-01-30T10:50:02;9.20;99.90
36856;DHT22;22788;51.434;6.786;2024-01-30T10:52:29;9.30;99.90
36856;DHT22;22788;51.434;6.786;2024-01-30T10:54:56;9.40;99.90
36856;DHT22;22788;51.434;6.786;2024-01-30T10:57:23;9.40;99.90
36856;DHT22;22788;51.434;6.786;2024-01-30T10:59:49;9.40;99.90
36856;DHT22;22788;51.434;6.786;2024-01-30T11:02:17;9.40;99.90
36856;DHT22;22788;51.434;6.786;2024-01-30T11:04:43;9.30;99.90
36856;DHT22;22788;51.434;6.786;2024-01-30T11:07:15;9.40;99.90
36856;DHT22;22788;51.434;6.786;2024-01-30T11:09:48;9.40;99.90
36856;DHT22;22788;51.434;6.786;2024-01-30T11:12:14;9.40;99.90
36856;DHT22;22788;51.434;6.786;2024-01-30T11:14:39;9.50;99.90
36856;DHT22;22788;51.434;6.786;2024-01-30T11:17:05;9.50;99.90
36856;DHT22;22788;51.434;6.786;2024-01-30T11:19:31;9.40;99.90
36856;DHT22;22788;51.434;6.786;2024-01-30T11:21:57;9.50;99.90
36856;DHT22;22788;51.434;6.786;2024-01-30T11:24:23;9.50;99.90
36856;DHT22;22788;51.434;6.786;2024-01-30T11:26:56;9.50;99.90
36856;DHT22;22788;51.434;6.786;2024-01-30T11:29:24;9.50;99.90
36856;DHT22;22788;51.434;6.786;2024-01-30T11:31:53;9.50;99.90
36856;DHT22;22788;51.434;6.786;2024-01-30T11:34:20;9.50;99.90
36856;DHT22;22788;51.434;6.786;2024-01-30T11:36:51;9.50;99.90
36856;DHT22;22788;51.434;6.786;2024-01-30T11:39:17;9.50;99.90
36856;DHT22;22788;51.434;6.786;2024-01-30T11:41:46;9.50;99.90
36856;DHT22;22788;51.434;6.786;2024-01-30T11:44:13;9.50;99.90
36856;DHT22;22788;51.434;6.786;2024-01-30T11:46:40;9.50;99.90
36856;DHT22;22788;51.434;6.786;2024-01-30T11:49:06;9.50;99.90
36856;DHT22;22788;51.434;6.786;2024-01-30T11:51:31;9.50;99.90
36856;DHT22;22788;51.434;6.786;2024-01-30T11:53:57;9.50;99.90
36856;DHT22;22788;51.434;6.786;2024-01-30T11:56:24;9.50;99.90
36856;DHT22;22788;51.434;6.786;2024-01-30T11:58:49;9.50;99.90
36856;DHT22;22788;51.434;6.786;2024-01-30T12:01:18;9.40;99.90
36856;DHT22;22788;51.434;6.786;2024-01-30T12:03:49;9.50;99.90
36856;DHT22;22788;51.434;6.786;2024-01-30T12:06:15;9.50;99.90
36856;DHT22;22788;51.434;6.786;2024-01-30T12:08:41;9.50;99.90
36856;DHT22;22788;51.434;6.786;2024-01-30T12:11:06;9.50;99.90
36856;DHT22;22788;51.434;6.786;2024-01-30T12:13:32;9.50;99.90
36856;DHT22;22788;51.434;6.786;2024-01-30T12:15:58;9.60;99.90
36856;DHT22;22788;51.434;6.786;2024-01-30T12:18:25;9.60;99.90
36856;DHT22;22788;51.434;6.786;2024-01-30T12:20:57;9.60;99.90
36856;DHT22;22788;51.434;6.786;2024-01-30T12:23:23;9.60;99.90
36856;DHT22;22788;51.434;6.786;2024-01-30T12:25:49;9.60;99.90
36856;DHT22;22788;51.434;6.786;2024-01-30T12:28:15;9.60;99.90
36856;DHT22;22788;51.434;6.786;2024-01-30T12:30:41;9.70;99.90
36856;DHT22;22788;51.434;6.786;2024-01-30T12:33:06;9.70;99.90
36856;DHT22;22788;51.434;6.786;2024-01-30T12:35:34;9.70;99.90
36856;DHT22;22788;51.434;6.786;2024-01-30T12:38:00;9.70;99.90
36856;DHT22;22788;51.434;6.786;2024-01-30T12:40:25;9.70;99.90
36856;DHT22;22788;51.434;6.786;2024-01-30T12:42:52;9.70;99.90
36856;DHT22;22788;51.434;6.786;2024-01-30T12:45:18;9.70;99.90
36856;DHT22;22788;51.434;6.786;2024-01-30T12:47:44;9.70;99.90
36856;DHT22;22788;51.434;6.786;2024-01-30T12:50:09;9.70;99.90
36856;DHT22;22788;51.434;6.786;2024-01-30T12:52:36;9.60;99.90
36856;DHT22;22788;51.434;6.786;2024-01-30T12:55:02;9.70;99.90
36856;DHT22;22788;51.434;6.786;2024-01-30T12:57:28;9.60;99.90
36856;DHT22;22788;51.434;6.786;2024-01-30T12:59:53;9.70;99.90
36856;DHT22;22788;51.434;6.786;2024-01-30T13:02:19;9.70;99.90
36856;DHT22;22788;51.434;6.786;2024-01-30T13:04:45;9.70;99.90
36856;DHT22;22788;51.434;6.786;2024-01-30T13:07:11;9.70;99.90
36856;DHT22;22788;51.434;6.786;2024-01-30T13:09:37;9.80;99.90
36856;DHT22;22788;51.434;6.786;2024-01-30T13:12:03;9.70;99.90
36856;DHT22;22788;51.434;6.786;2024-01-30T13:14:29;9.80;99.90
36856;DHT22;22788;51.434;6.786;2024-01-30T13:16:55;9.80;99.90
36856;DHT22;22788;51.434;6.786;2024-01-30T13:19:20;9.80;99.90
36856;DHT22;22788;51.434;6.786;2024-01-30T13:21:46;9.80;99.90
36856;DHT22;22788;51.434;6.786;2024-01-30T13:24:12;9.80;99.90
36856;DHT22;22788;51.434;6.786;2024-01-30T13:26:38;9.80;99.90
36856;DHT22;22788;51.434;6.786;2024-01-30T13:29:04;9.90;99.90
36856;DHT22;22788;51.434;6.786;2024-01-30T13:31:30;9.90;99.90
36856;DHT22;22788;51.434;6.786;2024-01-30T13:33:56;10.00;99.90
36856;DHT22;22788;51.434;6.786;2024-01-30T13:36:21;10.00;99.90
36856;DHT22;22788;51.434;6.786;2024-01-30T13:38:47;9.90;99.90
36856;DHT22;22788;51.434;6.786;2024-01-30T13:41:13;9.90;99.90
36856;DHT22;22788;51.434;6.786;2024-01-30T13:43:40;10.00;99.90
36856;DHT22;22788;51.434;6.786;2024-01-30T13:46:06;10.00;99.90
36856;DHT22;22788;51.434;6.786;2024-01-30T13:48:31;10.00;99.90
36856;DHT22;22788;51.434;6.786;2024-01-30T13:50:57;10.00;99.90
36856;DHT22;22788;51.434;6.786;2024-01-30T13:53:23;10.00;99.90
36856;DHT22;22788;51.434;6.786;2024-01-30T13:55:48;10.10;99.90
36856;DHT22;22788;51.434;6.786;2024-01-30T13:58:14;10.00;99.90
36856;DHT22;22788;51.434;6.786;2024-01-30T14:00:41;10.00;99.90
36856;DHT22;22788;51.434;6.786;2024-01-30T14:03:06;10.10;99.90
36856;DHT22;22788;51.434;6.786;2024-01-30T14:05:32;10.10;99.90
36856;DHT22;22788;51.434;6.786;2024-01-30T14:07:58;10.10;99.90
36856;DHT22;22788;51.434;6.786;2024-01-30T14:10:25;10.20;99.90
36856;DHT22;22788;51.434;6.786;2024-01-30T14:12:50;10.20;99.90
36856;DHT22;22788;51.434;6.786;2024-01-30T14:15:16;10.20;99.90
36856;DHT22;22788;51.434;6.786;2024-01-30T14:17:44;10.30;99.90
36856;DHT22;22788;51.434;6.786;2024-01-30T14:20:10;10.40;99.90
36856;DHT22;22788;51.434;6.786;2024-01-30T14:22:35;10.40;99.90
36856;DHT22;22788;51.434;6.786;2024-01-30T14:25:01;10.50;99.90
36856;DHT22;22788;51.434;6.786;2024-01-30T14:27:26;10.40;99.90
36856;DHT22;22788;51.434;6.786;2024-01-30T14:29:52;10.40;99.90
36856;DHT22;22788;51.434;6.786;2024-01-30T14:32:18;10.50;99.90
36856;DHT22;22788;51.434;6.786;2024-01-30T14:34:45;10.50;99.90
36856;DHT22;22788;51.434;6.786;2024-01-30T14:37:10;10.50;99.90
36856;DHT22;22788;51.434;6.786;2024-01-30T14:39:36;10.40;99.90
36856;DHT22;22788;51.434;6.786;2024-01-30T14:42:01;10.50;99.90
36856;DHT22;22788;51.434;6.786;2024-01-30T14:44:27;10.40;99.90
36856;DHT22;22788;51.434;6.786;2024-01-30T14:46:52;10.50;99.90
36856;DHT22;22788;51.434;6.786;2024-01-30T14:49:18;10.50;99.90
36856;DHT22;22788;51.434;6.786;2024-01-30T14:51:45;10.60;99.90
36856;DHT22;22788;51.434;6.786;2024-01-30T14:54:11;10.60;99.90
36856;DHT22;22788;51.434;6.786;2024-01-30T14:56:37;10.60;99.90
36856;DHT22;22788;51.434;6.786;2024-01-30T14:59:02;10.50;99.90
36856;DHT22;22788;51.434;6.786;2024-01-30T15:01:28;10.50;99.90
36856;DHT22;22788;51.434;6.786;2024-01-30T15:03:53;10.50;99.90
36856;DHT22;22788;51.434;6.786;2024-01-30T15:06:19;10.50;99.90
36856;DHT22;22788;51.434;6.786;2024-01-30T15:08:46;10.50;99.90
36856;DHT22;22788;51.434;6.786;2024-01-30T15:11:11;10.40;99.90
36856;DHT22;22788;51.434;6.786;2024-01-30T15:13:37;10.40;99.90
36856;DHT22;22788;51.434;6.786;2024-01-30T15:16:03;10.50;99.90
36856;DHT22;22788;51.434;6.786;2024-01-30T15:18:29;10.40;99.90
36856;DHT22;22788;51.434;6.786;2024-01-30T15:20:54;10.40;99.90
36856;DHT22;22788;51.434;6.786;2024-01-30T15:23:20;10.30;99.90
36856;DHT22;22788;51.434;6.786;2024-01-30T15:25:47;10.40;99.90
36856;DHT22;22788;51.434;6.786;2024-01-30T15:28:12;10.40;99.90
36856;DHT22;22788;51.434;6.786;2024-01-30T15:30:38;10.40;99.90
36856;DHT22;22788;51.434;6.786;2024-01-30T15:33:04;10.30;99.90
36856;DHT22;22788;51.434;6.786;2024-01-30T15:35:30;10.30;99.90
36856;DHT22;22788;51.434;6.786;2024-01-30T15:37:55;10.30;99.90